createdAt,value
2023-04-12T00:01:18.276Z,98275.75
2023-04-12T00:03:51.349Z,98274.16
2023-04-12T00:06:27.227Z,98272.91
2023-04-12T00:08:54.697Z,98265.09
2023-04-12T00:11:21.604Z,98258.44
2023-04-12T00:13:48.439Z,98273.28
2023-04-12T00:16:16.101Z,98276.03
2023-04-12T00:18:45.985Z,98275.66
2023-04-12T00:21:13.969Z,98260.75
2023-04-12T00:23:41.015Z,98269.34
2023-04-12T00:26:08.740Z,98261.47
2023-04-12T00:28:35.713Z,98265.81
2023-04-12T00:31:02.938Z,98260.31
2023-04-12T00:33:29.746Z,98256.47
2023-04-12T00:35:58.124Z,98258.41
2023-04-12T00:38:25.391Z,98259.19
2023-04-12T00:40:52.756Z,98263.06
2023-04-12T00:43:20.500Z,98261.84
2023-04-12T00:45:48.074Z,98253.97
2023-04-12T00:48:16.382Z,98250.47
2023-04-12T00:50:44.998Z,98252.84
2023-04-12T00:53:14.068Z,98241.91
2023-04-12T00:55:44.107Z,98245.00
2023-04-12T00:58:11.128Z,98234.41
2023-04-12T01:00:39.345Z,98241.03
2023-04-12T01:03:08.844Z,98237.84
2023-04-12T01:05:43.986Z,98229.22
2023-04-12T01:08:36.089Z,98231.53
2023-04-12T01:11:38.634Z,98225.97
2023-04-12T01:14:18.050Z,98228.28
2023-04-12T01:16:51.478Z,98218.84
2023-04-12T01:19:36.145Z,98197.69
2023-04-12T01:22:33.008Z,98201.16
2023-04-12T01:25:02.864Z,98200.00
2023-04-12T01:27:53.455Z,98194.97
2023-04-12T01:30:21.645Z,98205.91
2023-04-12T01:32:52.827Z,98200.84
2023-04-12T01:35:21.922Z,98202.75
2023-04-12T01:37:49.334Z,98194.53
2023-04-12T01:40:18.233Z,98195.69
2023-04-12T01:42:45.670Z,98201.84
2023-04-12T01:45:12.987Z,98185.03
2023-04-12T01:47:40.073Z,98182.28
2023-04-12T01:50:18.853Z,98174.53
2023-04-12T01:53:03.556Z,98180.34
2023-04-12T01:55:32.839Z,98169.00
2023-04-12T01:58:03.516Z,98170.94
2023-04-12T02:00:32.355Z,98172.44
2023-04-12T02:03:00.477Z,98166.19
2023-04-12T02:05:28.927Z,98159.91
2023-04-12T02:07:57.803Z,98174.75
2023-04-12T02:10:33.343Z,98159.50
2023-04-12T02:13:04.494Z,98148.94
2023-04-12T02:15:33.910Z,98141.06
2023-04-12T02:18:01.798Z,98135.97
2023-04-12T02:20:28.826Z,98127.78
2023-04-12T02:22:56.151Z,98115.25
2023-04-12T02:25:23.817Z,98116.41
2023-04-12T02:27:51.525Z,98113.66
2023-04-12T02:30:20.350Z,98103.47
2023-04-12T02:32:47.526Z,98111.22
2023-04-12T02:35:19.051Z,98097.13
2023-04-12T02:37:47.524Z,98100.56
2023-04-12T02:40:17.781Z,98097.03
2023-04-12T02:42:45.319Z,98079.88
2023-04-12T02:45:12.434Z,98071.69
2023-04-12T02:47:41.075Z,98070.88
2023-04-12T02:50:08.897Z,98060.31
2023-04-12T02:52:35.902Z,98042.34
2023-04-12T02:55:03.469Z,98053.63
2023-04-12T02:57:30.402Z,98049.66
2023-04-12T02:59:57.348Z,98035.16
2023-04-12T03:02:25.766Z,98024.22
2023-04-12T03:05:10.934Z,97998.44
2023-04-12T03:07:38.812Z,98008.56
2023-04-12T03:10:09.547Z,98000.75
2023-04-12T03:12:36.745Z,97989.00
2023-04-12T03:15:04.195Z,97987.44
2023-04-12T03:17:31.398Z,97985.84
2023-04-12T03:20:10.704Z,97995.19
2023-04-12T03:22:38.882Z,98000.66
2023-04-12T03:25:06.227Z,97990.53
2023-04-12T03:27:33.357Z,97988.94
2023-04-12T03:30:00.644Z,97972.19
2023-04-12T03:32:30.147Z,97978.00
2023-04-12T03:34:58.123Z,97967.09
2023-04-12T03:37:25.076Z,97971.75
2023-04-12T03:39:52.370Z,97966.28
2023-04-12T03:42:32.461Z,97978.00
2023-04-12T03:45:00.556Z,97972.91
2023-04-12T03:47:27.653Z,97969.81
2023-04-12T03:50:10.324Z,97960.03
2023-04-12T03:52:38.740Z,97956.53
2023-04-12T03:55:08.055Z,97948.75
2023-04-12T03:57:35.458Z,97940.56
2023-04-12T04:00:02.921Z,97931.97
2023-04-12T04:02:33.202Z,97915.91
2023-04-12T04:05:00.424Z,97916.28
2023-04-12T04:07:28.273Z,97906.16
2023-04-12T04:09:56.210Z,97906.16
2023-04-12T04:12:23.067Z,97896.78
2023-04-12T04:14:50.051Z,97901.13
2023-04-12T04:17:16.891Z,97891.00
2023-04-12T04:19:44.399Z,97883.56
2023-04-12T04:22:13.942Z,97872.28
2023-04-12T04:24:40.796Z,97855.53
2023-04-12T04:27:07.712Z,97857.13
2023-04-12T04:29:35.085Z,97843.09
2023-04-12T04:32:02.442Z,97827.16
2023-04-12T04:34:29.534Z,97818.16
2023-04-12T04:36:57.822Z,97799.84
2023-04-12T04:39:27.025Z,97803.28
2023-04-12T04:41:55.274Z,97789.63
2023-04-12T04:44:22.492Z,97785.72
2023-04-12T04:46:52.035Z,97766.63
2023-04-12T04:49:18.863Z,97764.69
2023-04-12T04:51:45.914Z,97747.16
2023-04-12T04:54:14.240Z,97746.41
2023-04-12T04:56:41.497Z,97733.19
2023-04-12T04:59:08.414Z,97725.06
2023-04-12T05:01:38.494Z,97711.00
2023-04-12T05:04:06.995Z,97705.16
2023-04-12T05:06:37.133Z,97704.03
2023-04-12T05:09:08.061Z,97700.50
2023-04-12T05:11:37.368Z,97697.41
2023-04-12T05:14:07.326Z,97678.72
2023-04-12T05:16:34.192Z,97675.25
2023-04-12T05:19:01.269Z,97671.78
2023-04-12T05:21:29.085Z,97661.25
2023-04-12T05:23:56.608Z,97660.53
2023-04-12T05:26:26.459Z,97652.31
2023-04-12T05:28:53.873Z,97642.94
2023-04-12T05:31:21.185Z,97647.63
2023-04-12T05:33:49.664Z,97652.72
2023-04-12T05:36:18.265Z,97648.47
2023-04-12T05:38:45.683Z,97621.16
2023-04-12T05:41:12.955Z,97626.66
2023-04-12T05:43:40.007Z,97630.59
2023-04-12T05:46:09.890Z,97604.84
2023-04-12T05:48:37.233Z,97604.50
2023-04-12T05:51:05.518Z,97604.97
2023-04-12T05:53:33.304Z,97597.22
2023-04-12T05:56:00.220Z,97574.66
2023-04-12T05:58:27.240Z,97566.13
2023-04-12T06:00:55.662Z,97542.31
2023-04-12T06:03:26.059Z,97540.41
2023-04-12T06:05:54.108Z,97520.94
2023-04-12T06:08:22.192Z,97507.69
2023-04-12T06:10:49.236Z,97492.88
2023-04-12T06:13:17.221Z,97477.31
2023-04-12T06:15:44.166Z,97475.75
2023-04-12T06:18:13.182Z,97459.75
2023-04-12T06:20:41.498Z,97444.50
2023-04-12T06:23:08.398Z,97430.44
2023-04-12T06:25:35.710Z,97432.00
2023-04-12T06:28:02.716Z,97425.38
2023-04-12T06:30:29.610Z,97429.66
2023-04-12T06:32:56.916Z,97424.19
2023-04-12T06:35:24.369Z,97408.56
2023-04-12T06:37:51.303Z,97387.47
2023-04-12T06:40:18.398Z,97398.41
2023-04-12T06:42:45.398Z,97395.31
2023-04-12T06:45:12.670Z,97384.38
2023-04-12T06:47:39.592Z,97386.31
2023-04-12T06:50:07.260Z,97382.00
2023-04-12T06:52:34.100Z,97385.91
2023-04-12T06:55:01.326Z,97366.00
2023-04-12T06:57:28.199Z,97364.00
2023-04-12T06:59:55.553Z,97356.22
2023-04-12T07:02:23.325Z,97335.50
2023-04-12T07:04:56.362Z,97325.72
2023-04-12T07:07:23.502Z,97320.25
2023-04-12T07:09:55.493Z,97307.00
2023-04-12T07:12:23.052Z,97305.81
2023-04-12T07:14:52.377Z,97287.84
2023-04-12T07:17:22.072Z,97281.94
2023-04-12T07:19:50.415Z,97282.38
2023-04-12T07:22:17.263Z,97273.41
2023-04-12T07:24:45.157Z,97265.59
2023-04-12T07:27:12.160Z,97250.34
2023-04-12T07:29:39.293Z,97248.41
2023-04-12T07:32:06.741Z,97245.28
2023-04-12T07:34:33.824Z,97233.59
2023-04-12T07:37:02.126Z,97232.81
2023-04-12T07:39:30.582Z,97228.91
2023-04-12T07:41:57.832Z,97224.25
2023-04-12T07:44:24.701Z,97228.19
2023-04-12T07:46:51.805Z,97231.34
2023-04-12T07:49:19.025Z,97224.31
2023-04-12T07:51:46.993Z,97218.81
2023-04-12T07:54:14.961Z,97223.13
2023-04-12T07:56:41.933Z,97218.03
2023-04-12T07:59:09.888Z,97213.72
2023-04-12T08:01:40.575Z,97206.31
2023-04-12T08:04:07.930Z,97214.91
2023-04-12T08:06:35.036Z,97196.91
2023-04-12T08:09:02.280Z,97195.34
2023-04-12T08:11:29.340Z,97197.69
2023-04-12T08:13:56.513Z,97198.47
2023-04-12T08:16:23.829Z,97192.97
2023-04-12T08:18:51.559Z,97191.78
2023-04-12T08:21:18.494Z,97200.00
2023-04-12T08:23:46.562Z,97201.16
2023-04-12T08:26:13.496Z,97199.16
2023-04-12T08:28:40.586Z,97196.38
2023-04-12T08:31:08.706Z,97190.06
2023-04-12T08:33:35.998Z,97194.34
2023-04-12T08:36:03.002Z,97208.41
2023-04-12T08:38:44.050Z,97206.41
2023-04-12T08:41:12.760Z,97209.13
2023-04-12T08:43:45.627Z,97216.16
2023-04-12T08:46:16.102Z,97216.56
2023-04-12T08:48:50.310Z,97212.66
2023-04-12T08:51:20.230Z,97223.63
2023-04-12T08:53:48.140Z,97221.66
2023-04-12T08:56:17.896Z,97223.16
2023-04-12T08:58:51.475Z,97232.19
2023-04-12T09:01:20.535Z,97238.50
2023-04-12T09:03:47.729Z,97237.28
2023-04-12T09:06:14.911Z,97247.84
2023-04-12T09:08:57.071Z,97244.66
2023-04-12T09:11:30.016Z,97245.88
2023-04-12T09:13:58.847Z,97257.25
2023-04-12T09:16:41.785Z,97254.94
2023-04-12T09:19:09.854Z,97250.22
2023-04-12T09:21:37.464Z,97258.53
2023-04-12T09:24:06.332Z,97257.03
2023-04-12T09:26:34.056Z,97254.56
2023-04-12T09:29:01.184Z,97253.84
2023-04-12T09:31:28.129Z,97267.06
2023-04-12T09:34:08.082Z,97264.31
2023-04-12T09:36:40.398Z,97259.88
2023-04-12T09:39:08.453Z,97277.97
2023-04-12T09:41:38.965Z,97272.25
2023-04-12T09:44:08.507Z,97276.78
2023-04-12T09:46:36.205Z,97293.41
2023-04-12T09:49:05.723Z,97289.50
2023-04-12T09:51:34.341Z,97300.63
2023-04-12T09:54:04.193Z,97296.91
2023-04-12T09:56:34.200Z,97304.03
2023-04-12T09:59:07.227Z,97310.22
2023-04-12T10:01:41.473Z,97310.81
2023-04-12T10:04:10.184Z,97311.53
2023-04-12T10:06:37.818Z,97316.28
2023-04-12T10:09:05.656Z,97305.56
2023-04-12T10:11:34.488Z,97322.06
2023-04-12T10:14:07.847Z,97317.78
2023-04-12T10:16:35.280Z,97315.50
2023-04-12T10:19:04.345Z,97322.16
2023-04-12T10:21:31.755Z,97326.13
2023-04-12T10:24:01.198Z,97322.38
2023-04-12T10:26:28.390Z,97325.63
2023-04-12T10:29:26.497Z,97331.09
2023-04-12T10:31:55.644Z,97342.63
2023-04-12T10:34:32.135Z,97343.84
2023-04-12T10:37:01.060Z,97343.59
2023-04-12T10:39:47.399Z,97345.09
2023-04-12T10:42:30.863Z,97371.66
2023-04-12T10:45:23.635Z,97365.38
2023-04-12T10:47:54.339Z,97384.97
2023-04-12T10:50:25.128Z,97387.06
2023-04-12T10:53:13.513Z,97394.16
2023-04-12T10:55:41.446Z,97391.03
2023-04-12T10:58:09.469Z,97400.78
2023-04-12T11:00:58.728Z,97406.50
2023-04-12T11:03:28.364Z,97399.91
2023-04-12T11:06:19.964Z,97416.75
2023-04-12T11:08:56.597Z,97411.09
2023-04-12T11:11:27.252Z,97418.78
2023-04-12T11:13:57.194Z,97425.41
2023-04-12T11:16:24.135Z,97441.56
2023-04-12T11:18:51.495Z,97451.78
2023-04-12T11:21:19.169Z,97447.06
2023-04-12T11:23:47.704Z,97462.09
2023-04-12T11:26:22.233Z,97455.00
2023-04-12T11:28:53.185Z,97468.63
2023-04-12T11:31:21.999Z,97463.56
2023-04-12T11:33:49.016Z,97467.34
2023-04-12T11:36:16.423Z,97466.25
2023-04-12T11:38:46.384Z,97474.25
2023-04-12T11:41:15.334Z,97465.72
2023-04-12T11:43:42.800Z,97482.25
2023-04-12T11:46:09.910Z,97481.91
2023-04-12T11:48:41.282Z,97484.75
2023-04-12T11:51:32.373Z,97491.00
2023-04-12T11:53:59.896Z,97506.00
2023-04-12T11:56:30.073Z,97493.41
2023-04-12T11:58:56.895Z,97505.28
2023-04-12T12:01:25.735Z,97505.66
2023-04-12T12:03:53.266Z,97513.91
2023-04-12T12:06:22.625Z,97518.53
2023-04-12T12:08:55.905Z,97524.41
2023-04-12T12:11:23.925Z,97520.81
2023-04-12T12:13:55.424Z,97516.34
2023-04-12T12:16:28.131Z,97532.69
2023-04-12T12:18:57.061Z,97530.25
2023-04-12T12:21:24.628Z,97535.56
2023-04-12T12:23:51.624Z,97527.38
2023-04-12T12:26:27.007Z,97523.50
2023-04-12T12:29:00.558Z,97533.38
2023-04-12T12:31:33.798Z,97527.50
2023-04-12T12:34:04.958Z,97538.16
2023-04-12T12:36:36.512Z,97538.22
2023-04-12T12:39:10.841Z,97540.97
2023-04-12T12:41:39.305Z,97534.38
2023-04-12T12:44:07.473Z,97540.28
2023-04-12T12:46:51.788Z,97539.94
2023-04-12T12:49:22.444Z,97543.53
2023-04-12T12:51:50.827Z,97552.97
2023-04-12T12:54:32.362Z,97554.09
2023-04-12T12:57:11.375Z,97562.28
2023-04-12T12:59:38.440Z,97571.25
2023-04-12T13:02:07.676Z,97569.53
2023-04-12T13:04:35.140Z,97581.31
2023-04-12T13:07:02.046Z,97589.88
2023-04-12T13:09:28.956Z,97589.47
2023-04-12T13:11:57.492Z,97600.25
2023-04-12T13:14:25.226Z,97609.03
2023-04-12T13:16:52.238Z,97610.75
2023-04-12T13:19:19.402Z,97603.31
2023-04-12T13:21:47.935Z,97616.34
2023-04-12T13:24:14.801Z,97610.91
2023-04-12T13:26:41.823Z,97612.16
2023-04-12T13:29:08.642Z,97624.47
2023-04-12T13:31:36.688Z,97624.97
2023-04-12T13:34:05.120Z,97618.75
2023-04-12T13:36:31.965Z,97632.53
2023-04-12T13:38:59.043Z,97632.59
2023-04-12T13:41:26.744Z,97641.25
2023-04-12T13:43:53.716Z,97636.91
2023-04-12T13:46:21.191Z,97631.44
2023-04-12T13:48:48.159Z,97645.19
2023-04-12T13:51:15.135Z,97644.44
2023-04-12T13:53:44.130Z,97632.25
2023-04-12T13:56:13.027Z,97633.81
2023-04-12T13:58:40.584Z,97638.94
2023-04-12T14:01:09.143Z,97638.94
2023-04-12T14:03:46.114Z,97642.09
2023-04-12T14:06:13.230Z,97656.63
2023-04-12T14:08:40.211Z,97655.47
2023-04-12T14:11:07.963Z,97658.63
2023-04-12T14:13:35.411Z,97667.25
2023-04-12T14:16:02.374Z,97661.38
2023-04-12T14:18:29.574Z,97668.03
2023-04-12T14:20:57.874Z,97660.97
2023-04-12T14:23:28.662Z,97674.34
2023-04-12T14:25:56.724Z,97664.09
2023-04-12T14:28:30.729Z,97677.47
2023-04-12T14:30:58.176Z,97680.22
2023-04-12T14:33:26.087Z,97685.31
2023-04-12T14:35:54.269Z,97693.97
2023-04-12T14:38:25.201Z,97688.88
2023-04-12T14:40:52.101Z,97694.72
2023-04-12T14:43:18.912Z,97683.75
2023-04-12T14:45:45.969Z,97695.50
2023-04-12T14:48:13.012Z,97699.44
2023-04-12T14:50:39.984Z,97708.47
2023-04-12T14:53:10.839Z,97707.31
2023-04-12T14:55:38.658Z,97702.56
2023-04-12T14:58:06.884Z,97722.63
2023-04-12T15:00:34.099Z,97727.31
2023-04-12T15:03:01.553Z,97728.91
2023-04-12T15:05:28.753Z,97739.13
2023-04-12T15:07:55.671Z,97747.34
2023-04-12T15:10:22.637Z,97746.19
2023-04-12T15:12:51.535Z,97759.16
2023-04-12T15:15:18.358Z,97771.72
2023-04-12T15:17:45.729Z,97774.09
2023-04-12T15:20:17.093Z,97795.69
2023-04-12T15:22:44.191Z,97809.84
2023-04-12T15:25:11.965Z,97815.72
2023-04-12T15:27:38.939Z,97842.84
2023-04-12T15:30:10.256Z,97844.03
2023-04-12T15:32:42.508Z,97854.25
2023-04-12T15:35:25.365Z,97870.75
2023-04-12T15:37:55.352Z,97877.03
2023-04-12T15:40:23.176Z,97883.31
2023-04-12T15:42:50.073Z,97897.47
2023-04-12T15:45:17.470Z,97904.53
2023-04-12T15:47:46.801Z,97922.63
2023-04-12T15:50:15.368Z,97933.22
2023-04-12T15:52:44.430Z,97940.69
2023-04-12T15:55:12.956Z,97949.31
2023-04-12T15:57:41.101Z,97965.03
2023-04-12T16:00:21.283Z,97980.34
2023-04-12T16:02:53.914Z,97976.78
2023-04-12T16:05:21.302Z,98002.72
2023-04-12T16:07:51.171Z,98013.72
2023-04-12T16:10:21.183Z,98023.91
2023-04-12T16:12:52.893Z,98034.91
2023-04-12T16:15:20.947Z,98034.91
2023-04-12T16:17:53.437Z,98053.78
2023-04-12T16:20:23.481Z,98047.47
2023-04-12T16:22:55.026Z,98080.91
2023-04-12T16:25:30.759Z,98080.50
2023-04-12T16:28:02.471Z,98084.84
2023-04-12T16:30:31.542Z,98098.59
2023-04-12T16:33:00.180Z,98118.25
2023-04-12T16:35:27.308Z,98106.47
2023-04-12T16:37:54.936Z,98133.19
2023-04-12T16:40:22.419Z,98130.03
2023-04-12T16:42:49.404Z,98137.13
2023-04-12T16:45:16.558Z,98150.50
2023-04-12T16:47:47.479Z,98151.66
2023-04-12T16:50:17.661Z,98152.03
2023-04-12T16:52:44.928Z,98181.53
2023-04-12T16:55:12.475Z,98188.22
2023-04-12T16:57:42.009Z,98195.69
2023-04-12T17:00:29.210Z,98216.91
2023-04-12T17:02:56.308Z,98213.38
2023-04-12T17:05:23.757Z,98214.97
2023-04-12T17:07:54.514Z,98225.16
2023-04-12T17:10:23.257Z,98235.78
2023-04-12T17:12:55.854Z,98241.28
2023-04-12T17:15:23.210Z,98260.53
2023-04-12T17:17:52.805Z,98263.28
2023-04-12T17:20:22.355Z,98279.41
2023-04-12T17:22:49.983Z,98299.03
2023-04-12T17:25:20.701Z,98306.47
2023-04-12T17:27:49.637Z,98318.56
2023-04-12T17:30:17.923Z,98340.13
2023-04-12T17:32:50.965Z,98316.88
2023-04-12T17:35:18.634Z,98317.66
2023-04-12T17:37:47.142Z,98321.56
2023-04-12T17:40:15.481Z,98325.47
2023-04-12T17:42:43.834Z,98327.44
2023-04-12T17:45:13.999Z,98328.22
2023-04-12T17:47:43.949Z,98343.16
2023-04-12T17:50:11.869Z,98336.47
2023-04-12T17:52:39.094Z,98341.22
2023-04-12T17:55:09.436Z,98344.38
2023-04-12T17:57:37.637Z,98356.97
2023-04-12T18:00:14.572Z,98362.50
2023-04-12T18:02:43.842Z,98353.06
2023-04-12T18:05:11.439Z,98368.75
2023-04-12T18:07:40.358Z,98369.56
2023-04-12T18:10:15.767Z,98386.88
2023-04-12T18:12:45.394Z,98388.47
2023-04-12T18:15:13.025Z,98382.97
2023-04-12T18:17:41.298Z,98384.53
2023-04-12T18:20:10.863Z,98389.25
2023-04-12T18:22:39.906Z,98400.25
2023-04-12T18:25:11.908Z,98408.50
2023-04-12T18:27:38.807Z,98414.41
2023-04-12T18:30:07.952Z,98443.91
2023-04-12T18:32:36.221Z,98441.97
2023-04-12T18:35:05.225Z,98440.38
2023-04-12T18:37:33.512Z,98453.28
2023-04-12T18:40:01.091Z,98460.69
2023-04-12T18:42:28.783Z,98463.78
2023-04-12T18:44:58.403Z,98479.44
2023-04-12T18:47:27.391Z,98484.47
2023-04-12T18:49:55.786Z,98482.44
2023-04-12T18:52:22.683Z,98502.00
2023-04-12T18:54:59.988Z,98479.94
2023-04-12T18:57:30.107Z,98482.63
2023-04-12T18:59:57.823Z,98493.22
2023-04-12T19:02:25.135Z,98500.66
2023-04-12T19:04:52.334Z,98512.44
2023-04-12T19:07:19.540Z,98510.91
2023-04-12T19:09:48.275Z,98525.06
2023-04-12T19:12:15.984Z,98522.38
2023-04-12T19:14:43.694Z,98520.78
2023-04-12T19:17:10.697Z,98548.25
2023-04-12T19:19:38.116Z,98547.41
2023-04-12T19:22:04.946Z,98562.69
2023-04-12T19:24:32.142Z,98563.44
2023-04-12T19:27:00.746Z,98571.69
2023-04-12T19:29:29.586Z,98582.69
2023-04-12T19:31:58.050Z,98587.38
2023-04-12T19:34:29.797Z,98587.38
2023-04-12T19:36:58.924Z,98590.47
2023-04-12T19:39:27.376Z,98602.28
2023-04-12T19:41:54.498Z,98605.75
2023-04-12T19:44:23.406Z,98614.72
2023-04-12T19:46:51.832Z,98619.47
2023-04-12T19:49:22.213Z,98634.72
2023-04-12T19:51:49.214Z,98634.66
2023-04-12T19:54:16.107Z,98627.56
2023-04-12T19:56:44.515Z,98646.75
2023-04-12T19:59:13.581Z,98643.13
2023-04-12T20:01:48.423Z,98657.25
2023-04-12T20:04:23.053Z,98652.84
2023-04-12T20:06:52.052Z,98650.47
2023-04-12T20:09:19.186Z,98662.59
2023-04-12T20:11:46.419Z,98658.28
2023-04-12T20:14:13.516Z,98659.00
2023-04-12T20:16:43.953Z,98661.34
2023-04-12T20:19:12.052Z,98663.63
2023-04-12T20:21:40.470Z,98687.94
2023-04-12T20:24:10.166Z,98680.88
2023-04-12T20:26:37.519Z,98681.59
2023-04-12T20:29:05.015Z,98694.09
2023-04-12T20:31:33.568Z,98697.19
2023-04-12T20:34:00.533Z,98697.19
2023-04-12T20:36:29.826Z,98715.97
2023-04-12T20:38:57.030Z,98714.75
2023-04-12T20:41:24.511Z,98719.81
2023-04-12T20:43:54.409Z,98716.59
2023-04-12T20:46:25.940Z,98728.69
2023-04-12T20:48:57.663Z,98736.56
2023-04-12T20:51:25.115Z,98725.50
2023-04-12T20:53:52.477Z,98732.94
2023-04-12T20:56:20.626Z,98732.94
2023-04-12T20:58:49.856Z,98734.47
2023-04-12T21:01:19.065Z,98732.88
2023-04-12T21:03:47.099Z,98741.09
2023-04-12T21:06:15.926Z,98737.59
2023-04-12T21:08:47.670Z,98740.66
2023-04-12T21:11:15.473Z,98744.22
2023-04-12T21:13:42.489Z,98753.25
2023-04-12T21:16:09.961Z,98760.31
2023-04-12T21:18:36.957Z,98774.41
2023-04-12T21:21:06.198Z,98772.03
2023-04-12T21:23:33.234Z,98783.78
2023-04-12T21:26:00.144Z,98774.34
2023-04-12T21:28:29.740Z,98772.75
2023-04-12T21:30:58.630Z,98791.53
2023-04-12T21:33:25.773Z,98789.50
2023-04-12T21:35:58.862Z,98791.47
2023-04-12T21:38:26.253Z,98793.41
2023-04-12T21:40:54.478Z,98805.53
2023-04-12T21:43:21.273Z,98794.13
2023-04-12T21:45:48.166Z,98798.81
2023-04-12T21:48:15.065Z,98810.16
2023-04-12T21:50:43.608Z,98808.56
2023-04-12T21:53:10.631Z,98815.22
2023-04-12T21:55:38.676Z,98813.19
2023-04-12T21:58:07.439Z,98822.56
2023-04-12T22:00:37.208Z,98822.56
2023-04-12T22:03:04.684Z,98826.47
2023-04-12T22:05:32.169Z,98824.88
2023-04-12T22:08:00.746Z,98837.78
2023-04-12T22:10:29.526Z,98837.00
2023-04-12T22:12:56.379Z,98834.97
2023-04-12T22:15:23.252Z,98829.50
2023-04-12T22:17:54.125Z,98832.16
2023-04-12T22:20:21.088Z,98838.44
2023-04-12T22:22:48.701Z,98838.78
2023-04-12T22:25:16.897Z,98846.72
2023-04-12T22:27:48.026Z,98842.47
2023-04-12T22:30:16.012Z,98842.94
2023-04-12T22:32:43.271Z,98847.63
2023-04-12T22:35:10.467Z,98844.50
2023-04-12T22:37:47.048Z,98855.84
2023-04-12T22:40:14.682Z,98854.63
2023-04-12T22:42:49.152Z,98859.22
2023-04-12T22:45:19.890Z,98859.22
2023-04-12T22:47:47.824Z,98851.34
2023-04-12T22:50:15.286Z,98868.63
2023-04-12T22:52:42.869Z,98867.00
2023-04-12T22:55:21.196Z,98868.53
2023-04-12T22:57:48.035Z,98870.03
2023-04-12T23:00:17.126Z,98876.66
2023-04-12T23:02:46.586Z,98876.22
2023-04-12T23:05:14.385Z,98876.59
2023-04-12T23:07:41.764Z,98884.34
2023-04-12T23:10:09.465Z,98886.34
2023-04-12T23:12:37.538Z,98899.59
2023-04-12T23:15:06.575Z,98896.41
2023-04-12T23:17:34.102Z,98883.06
2023-04-12T23:20:02.292Z,98892.44
2023-04-12T23:22:55.802Z,98897.09
2023-04-12T23:25:25.670Z,98908.78
2023-04-12T23:27:52.614Z,98912.69
2023-04-12T23:30:24.973Z,98915.00
2023-04-12T23:32:53.589Z,98920.47
2023-04-12T23:35:20.560Z,98928.94
2023-04-12T23:37:48.767Z,98931.25
2023-04-12T23:40:15.882Z,98914.81
2023-04-12T23:42:43.726Z,98921.88
2023-04-12T23:45:12.177Z,98921.88
2023-04-12T23:47:39.136Z,98927.38
2023-04-12T23:50:07.473Z,98923.47
2023-04-12T23:52:34.558Z,98925.44
2023-04-12T23:55:02.857Z,98926.56
2023-04-12T23:57:29.916Z,98925.34
2023-04-12T23:59:56.938Z,98918.94
